createdAt,value
2018-10-16T00:00:36.695Z,101748.49
2018-10-16T00:01:37.036Z,101748.69
2018-10-16T00:02:37.374Z,101748.47
2018-10-16T00:03:37.687Z,101748.63
2018-10-16T00:04:38.011Z,101748.53
2018-10-16T00:05:38.257Z,101748.14
2018-10-16T00:06:38.581Z,101748.69
2018-10-16T00:07:38.795Z,101748.94
2018-10-16T00:08:39.128Z,101749.11
2018-10-16T00:09:39.423Z,101748.80
2018-10-16T00:10:39.790Z,101749.05
2018-10-16T00:11:40.125Z,101749.30
2018-10-16T00:12:40.459Z,101749.39
2018-10-16T00:13:40.881Z,101749.51
2018-10-16T00:14:41.408Z,101749.88
2018-10-16T00:15:41.710Z,101750.70
2018-10-16T00:16:42.103Z,101750.23
2018-10-16T00:17:42.402Z,101750.42
2018-10-16T00:18:42.793Z,101749.87
2018-10-16T00:19:43.069Z,101750.15
2018-10-16T00:20:43.667Z,101751.23
2018-10-16T00:21:43.966Z,101751.27
2018-10-16T00:22:44.240Z,101751.17
2018-10-16T00:23:44.844Z,101752.05
2018-10-16T00:24:45.135Z,101752.00
2018-10-16T00:25:45.398Z,101752.12
2018-10-16T00:26:45.644Z,101752.91
2018-10-16T00:27:46.077Z,101753.78
2018-10-16T00:28:46.535Z,101754.41
2018-10-16T00:29:46.841Z,101755.20
2018-10-16T00:30:47.148Z,101756.41
2018-10-16T00:31:47.573Z,101756.67
2018-10-16T00:32:48.144Z,101757.62
2018-10-16T00:33:47.229Z,101757.83
2018-10-16T00:34:48.643Z,101758.62
2018-10-16T00:35:48.858Z,101759.16
2018-10-16T00:36:49.137Z,101759.30
2018-10-16T00:37:49.406Z,101759.67
2018-10-16T00:38:49.721Z,101759.88
2018-10-16T00:39:49.203Z,101760.33
2018-10-16T00:39:57.779Z,101767.41
2018-10-16T00:40:59.065Z,101766.86
2018-10-16T00:41:59.442Z,101767.08
2018-10-16T00:42:59.717Z,101767.08
2018-10-16T00:44:00.045Z,101767.33
2018-10-16T00:45:00.571Z,101767.41
2018-10-16T00:46:00.945Z,101767.12
2018-10-16T00:47:01.260Z,101767.05
2018-10-16T00:48:01.602Z,101767.13
2018-10-16T00:49:01.876Z,101766.97
2018-10-16T00:50:02.345Z,101767.22
2018-10-16T00:51:02.616Z,101766.82
2018-10-16T00:52:02.852Z,101766.69
2018-10-16T00:53:03.163Z,101765.78
2018-10-16T00:54:03.578Z,101766.13
2018-10-16T00:55:03.961Z,101766.06
2018-10-16T00:56:03.168Z,101766.18
2018-10-16T00:57:04.676Z,101766.38
2018-10-16T00:58:04.942Z,101766.61
2018-10-16T00:59:05.198Z,101766.64
2018-10-16T01:00:05.702Z,101766.95
2018-10-16T01:01:06.016Z,101766.73
2018-10-16T01:02:06.342Z,101767.02
2018-10-16T01:03:06.845Z,101767.89
2018-10-16T01:04:07.206Z,101768.67
2018-10-16T01:05:08.074Z,101768.99
2018-10-16T01:06:08.381Z,101769.87
2018-10-16T01:07:08.729Z,101770.77
2018-10-16T01:08:09.016Z,101771.56
2018-10-16T01:09:09.641Z,101772.27
2018-10-16T01:10:10.163Z,101772.63
2018-10-16T01:11:10.621Z,101773.25
2018-10-16T01:12:10.927Z,101774.55
2018-10-16T01:13:11.265Z,101775.17
2018-10-16T01:14:10.670Z,101776.08
2018-10-16T01:15:12.644Z,101777.88
2018-10-16T01:16:13.541Z,101778.52
2018-10-16T01:17:13.869Z,101779.98
2018-10-16T01:18:14.346Z,101781.20
2018-10-16T01:19:14.635Z,101782.08
2018-10-16T01:20:14.963Z,101783.15
2018-10-16T01:21:15.314Z,101784.87
2018-10-16T01:22:15.692Z,101785.73
2018-10-16T01:23:16.000Z,101786.48
2018-10-16T01:24:16.348Z,101787.77
2018-10-16T01:25:16.751Z,101789.27
2018-10-16T01:26:17.039Z,101790.47
2018-10-16T01:26:25.652Z,101814.23
2018-10-16T01:27:26.344Z,101813.64
2018-10-16T01:28:27.056Z,101813.64
2018-10-16T01:29:27.297Z,101813.98
2018-10-16T01:30:27.635Z,101813.59
2018-10-16T01:31:27.988Z,101813.59
2018-10-16T01:32:28.260Z,101813.25
2018-10-16T01:33:29.580Z,101813.47
2018-10-16T01:34:29.051Z,101813.47
2018-10-16T01:35:29.257Z,101813.47
2018-10-16T01:36:29.605Z,101813.30
2018-10-16T01:37:29.904Z,101813.22
2018-10-16T01:38:30.182Z,101812.97
2018-10-16T01:39:30.755Z,101813.05
2018-10-16T01:40:31.221Z,101812.83
2018-10-16T01:41:31.603Z,101812.85
2018-10-16T01:42:31.953Z,101811.67
2018-10-16T01:43:32.579Z,101811.36
2018-10-16T01:44:33.203Z,101811.86
2018-10-16T01:45:33.605Z,101812.23
2018-10-16T01:46:33.998Z,101811.92
2018-10-16T01:47:34.331Z,101812.26
2018-10-16T01:48:34.579Z,101812.37
2018-10-16T01:49:34.965Z,101811.64
2018-10-16T01:50:35.594Z,101812.06
2018-10-16T01:51:36.144Z,101812.34
2018-10-16T01:52:36.869Z,101812.36
2018-10-16T01:53:37.385Z,101812.64
2018-10-16T01:54:37.700Z,101812.95
2018-10-16T01:55:38.005Z,101813.28
2018-10-16T01:56:38.660Z,101813.77
2018-10-16T01:57:39.029Z,101813.95
2018-10-16T01:58:39.303Z,101813.98
2018-10-16T01:59:40.269Z,101814.52
2018-10-16T02:00:40.824Z,101814.69
2018-10-16T02:01:41.120Z,101814.85
2018-10-16T02:02:41.414Z,101815.87
2018-10-16T02:03:40.940Z,101816.55
2018-10-16T02:04:42.648Z,101817.13
2018-10-16T02:05:42.982Z,101817.92
2018-10-16T02:06:43.234Z,101818.38
2018-10-16T02:07:43.587Z,101818.65
2018-10-16T02:08:44.028Z,101819.49
2018-10-16T02:09:44.526Z,101820.03
2018-10-16T02:10:45.144Z,101820.28
2018-10-16T02:11:45.505Z,101820.75
2018-10-16T02:11:54.240Z,101822.97
2018-10-16T02:12:55.614Z,101822.38
2018-10-16T02:13:55.017Z,101822.80
2018-10-16T02:14:55.305Z,101822.54
2018-10-16T02:15:55.787Z,101822.63
2018-10-16T02:16:57.203Z,101822.70
2018-10-16T02:17:57.741Z,101822.88
2018-10-16T02:18:58.274Z,101822.63
2018-10-16T02:19:58.570Z,101822.12
2018-10-16T02:20:58.886Z,101822.34
2018-10-16T02:21:59.144Z,101822.32
2018-10-16T02:22:59.496Z,101822.23
2018-10-16T02:23:59.743Z,101822.58
2018-10-16T02:24:59.965Z,101823.59
2018-10-16T02:26:00.223Z,101824.43
2018-10-16T02:27:00.669Z,101824.59
2018-10-16T02:28:00.950Z,101825.55
2018-10-16T02:29:01.381Z,101826.23
2018-10-16T02:30:01.630Z,101826.40
2018-10-16T02:31:01.912Z,101826.31
2018-10-16T02:32:02.258Z,101826.91
2018-10-16T02:33:02.686Z,101826.73
2018-10-16T02:34:03.090Z,101827.08
2018-10-16T02:35:03.381Z,101827.08
2018-10-16T02:36:03.873Z,101827.50
2018-10-16T02:37:04.236Z,101827.41
2018-10-16T02:38:04.524Z,101828.03
2018-10-16T02:39:05.780Z,101828.19
2018-10-16T02:40:05.063Z,101828.73
2018-10-16T02:41:05.328Z,101829.23
2018-10-16T02:42:05.577Z,101829.77
2018-10-16T02:43:05.801Z,101830.69
2018-10-16T02:44:06.142Z,101831.48
2018-10-16T02:45:06.455Z,101832.77
2018-10-16T02:46:06.795Z,101834.06
2018-10-16T02:47:07.310Z,101834.59
2018-10-16T02:48:07.761Z,101835.55
2018-10-16T02:49:08.011Z,101836.50
2018-10-16T02:50:08.291Z,101837.25
2018-10-16T02:51:08.603Z,101837.78
2018-10-16T02:52:08.880Z,101838.58
2018-10-16T02:53:09.290Z,101839.36
2018-10-16T02:54:09.656Z,101840.39
2018-10-16T02:55:09.862Z,101840.59
2018-10-16T02:56:10.215Z,101841.29
2018-10-16T02:57:10.656Z,101841.40
2018-10-16T02:57:18.743Z,101848.76
2018-10-16T02:58:19.965Z,101848.59
2018-10-16T02:59:20.234Z,101848.76
2018-10-16T03:00:20.553Z,101848.92
2018-10-16T03:01:21.046Z,101849.09
2018-10-16T03:02:21.913Z,101849.09
2018-10-16T03:03:22.167Z,101849.34
2018-10-16T03:04:22.566Z,101849.43
2018-10-16T03:05:21.941Z,101848.95
2018-10-16T03:06:23.360Z,101849.12
2018-10-16T03:07:23.938Z,101848.95
2018-10-16T03:08:24.258Z,101849.20
2018-10-16T03:09:24.540Z,101849.20
2018-10-16T03:10:25.421Z,101849.77
2018-10-16T03:11:25.980Z,101850.11
2018-10-16T03:12:26.469Z,101850.14
2018-10-16T03:13:26.761Z,101850.39
2018-10-16T03:14:27.070Z,101850.66
2018-10-16T03:15:27.419Z,101851.00
2018-10-16T03:16:27.788Z,101851.36
2018-10-16T03:17:28.063Z,101851.28
2018-10-16T03:18:28.378Z,101851.55
2018-10-16T03:19:28.657Z,101851.58
2018-10-16T03:20:29.018Z,101851.94
2018-10-16T03:21:28.306Z,101851.85
2018-10-16T03:22:29.722Z,101851.54
2018-10-16T03:23:30.129Z,101851.48
2018-10-16T03:24:30.407Z,101851.33
2018-10-16T03:25:30.893Z,101851.53
2018-10-16T03:26:31.158Z,101852.31
2018-10-16T03:27:31.638Z,101852.25
2018-10-16T03:28:32.025Z,101852.08
2018-10-16T03:29:32.274Z,101852.78
2018-10-16T03:30:32.611Z,101853.12
2018-10-16T03:31:33.029Z,101853.70
2018-10-16T03:32:34.311Z,101854.23
2018-10-16T03:33:33.644Z,101854.74
2018-10-16T03:34:33.936Z,101855.53
2018-10-16T03:35:34.680Z,101855.45
2018-10-16T03:36:34.940Z,101855.86
2018-10-16T03:37:35.377Z,101856.87
2018-10-16T03:38:35.826Z,101857.33
2018-10-16T03:39:36.184Z,101858.09
2018-10-16T03:40:36.662Z,101858.41
2018-10-16T03:40:45.362Z,101871.63
2018-10-16T03:41:46.568Z,101871.06
2018-10-16T03:42:46.950Z,101870.89
2018-10-16T03:43:47.312Z,101870.92
2018-10-16T03:44:47.567Z,101871.03
2018-10-16T03:45:47.834Z,101870.69
2018-10-16T03:46:48.300Z,101870.77
2018-10-16T03:47:48.560Z,101870.87
2018-10-16T03:48:48.814Z,101871.22
2018-10-16T03:49:49.084Z,101871.89
2018-10-16T03:50:49.311Z,101872.14
2018-10-16T03:51:49.604Z,101873.48
2018-10-16T03:52:49.889Z,101873.83
2018-10-16T03:53:50.106Z,101875.28
2018-10-16T03:54:50.464Z,101876.48
2018-10-16T03:55:50.833Z,101877.77
2018-10-16T03:56:51.189Z,101878.30
2018-10-16T03:57:51.839Z,101879.52
2018-10-16T03:58:51.106Z,101880.80
2018-10-16T03:59:52.396Z,101881.38
2018-10-16T04:00:52.629Z,101882.09
2018-10-16T04:01:53.049Z,101882.92
2018-10-16T04:02:53.789Z,101883.38
2018-10-16T04:03:54.200Z,101884.16
2018-10-16T04:04:54.586Z,101884.58
2018-10-16T04:05:54.977Z,101885.00
2018-10-16T04:06:55.065Z,101885.08
2018-10-16T04:07:55.933Z,101885.84
2018-10-16T04:08:56.252Z,101886.27
2018-10-16T04:09:56.997Z,101886.71
2018-10-16T04:10:57.353Z,101886.95
2018-10-16T04:11:57.675Z,101887.66
2018-10-16T04:12:58.239Z,101887.94
2018-10-16T04:13:58.891Z,101888.46
2018-10-16T04:14:58.175Z,101889.42
2018-10-16T04:15:59.459Z,101889.61
2018-10-16T04:16:59.870Z,101889.94
2018-10-16T04:17:59.177Z,101890.30
2018-10-16T04:19:00.520Z,101890.16
2018-10-16T04:20:01.776Z,101890.77
2018-10-16T04:21:01.310Z,101890.63
2018-10-16T04:22:01.915Z,101890.98
2018-10-16T04:23:02.264Z,101890.83
2018-10-16T04:24:01.666Z,101890.77
2018-10-16T04:25:02.941Z,101890.87
2018-10-16T04:26:03.352Z,101891.15
2018-10-16T04:27:03.689Z,101891.28
2018-10-16T04:28:04.046Z,101890.71
2018-10-16T04:29:04.607Z,101891.33
2018-10-16T04:30:04.121Z,101891.44
2018-10-16T04:30:12.958Z,101893.14
2018-10-16T04:31:14.095Z,101892.88
2018-10-16T04:32:14.494Z,101892.32
2018-10-16T04:33:14.729Z,101891.98
2018-10-16T04:34:14.963Z,101892.26
2018-10-16T04:35:15.403Z,101891.84
2018-10-16T04:36:15.754Z,101892.17
2018-10-16T04:37:16.054Z,101892.26
2018-10-16T04:38:16.353Z,101892.66
2018-10-16T04:39:16.579Z,101892.91
2018-10-16T04:40:16.843Z,101892.91
2018-10-16T04:41:17.159Z,101893.00
2018-10-16T04:42:17.573Z,101893.39
2018-10-16T04:43:17.811Z,101893.98
2018-10-16T04:44:18.163Z,101894.07
2018-10-16T04:45:18.423Z,101894.55
2018-10-16T04:46:18.728Z,101895.23
2018-10-16T04:47:18.927Z,101895.31
2018-10-16T04:48:19.181Z,101895.53
2018-10-16T04:49:19.399Z,101895.66
2018-10-16T04:50:20.094Z,101896.38
2018-10-16T04:51:20.383Z,101896.72
2018-10-16T04:52:20.698Z,101896.83
2018-10-16T04:53:20.912Z,101896.83
2018-10-16T04:54:21.245Z,101896.83
2018-10-16T04:55:21.532Z,101897.06
2018-10-16T04:56:22.242Z,101897.06
2018-10-16T04:57:22.732Z,101897.23
2018-10-16T04:58:23.188Z,101897.03
2018-10-16T04:59:23.546Z,101897.27
2018-10-16T05:00:24.097Z,101897.92
2018-10-16T05:01:24.604Z,101898.35
2018-10-16T05:02:25.013Z,101898.83
2018-10-16T05:03:25.381Z,101899.17
2018-10-16T05:04:25.713Z,101899.65
2018-10-16T05:05:25.349Z,101900.08
2018-10-16T05:06:26.643Z,101900.24
2018-10-16T05:07:26.846Z,101901.06
2018-10-16T05:08:27.102Z,101901.82
2018-10-16T05:09:27.718Z,101902.58
2018-10-16T05:10:28.050Z,101902.98
2018-10-16T05:11:28.312Z,101903.65
2018-10-16T05:12:28.620Z,101904.16
2018-10-16T05:13:29.199Z,101904.61
2018-10-16T05:14:29.474Z,101904.86
2018-10-16T05:15:30.837Z,101905.11
2018-10-16T05:15:39.507Z,101910.08
2018-10-16T05:16:39.937Z,101909.86
2018-10-16T05:17:40.138Z,101910.08
2018-10-16T05:18:40.372Z,101909.91
2018-10-16T05:19:41.027Z,101910.20
2018-10-16T05:20:42.617Z,101909.94
2018-10-16T05:21:41.915Z,101910.61
2018-10-16T05:22:42.454Z,101910.98
2018-10-16T05:23:42.716Z,101910.97
2018-10-16T05:24:42.975Z,101911.22
2018-10-16T05:25:43.257Z,101911.33
2018-10-16T05:26:43.611Z,101911.41
2018-10-16T05:27:43.893Z,101911.83
2018-10-16T05:28:44.296Z,101912.20
2018-10-16T05:29:44.560Z,101913.12
2018-10-16T05:30:45.067Z,101913.38
2018-10-16T05:31:45.421Z,101913.88
2018-10-16T05:32:46.097Z,101914.05
2018-10-16T05:33:46.386Z,101914.16
2018-10-16T05:34:46.664Z,101914.86
2018-10-16T05:35:46.954Z,101915.86
2018-10-16T05:36:47.370Z,101916.47
2018-10-16T05:37:47.894Z,101917.14
2018-10-16T05:38:48.456Z,101917.41
2018-10-16T05:39:48.859Z,101918.51
2018-10-16T05:40:49.294Z,101918.84
2018-10-16T05:41:49.899Z,101919.47
2018-10-16T05:42:50.303Z,101919.97
2018-10-16T05:43:50.860Z,101919.80
2018-10-16T05:44:51.146Z,101920.14
2018-10-16T05:45:51.492Z,101920.98
2018-10-16T05:46:52.008Z,101921.66
2018-10-16T05:47:52.323Z,101922.52
2018-10-16T05:48:52.574Z,101923.53
2018-10-16T05:49:52.905Z,101923.63
2018-10-16T05:50:53.101Z,101924.16
2018-10-16T05:51:53.623Z,101924.83
2018-10-16T05:52:54.050Z,101925.88
2018-10-16T05:53:54.505Z,101926.88
2018-10-16T05:54:54.887Z,101928.00
2018-10-16T05:55:55.465Z,101928.67
2018-10-16T05:56:55.863Z,101929.70
2018-10-16T05:57:55.172Z,101930.29
2018-10-16T05:58:56.582Z,101930.82
2018-10-16T05:59:56.803Z,101931.19
2018-10-16T06:00:56.224Z,101931.09
2018-10-16T06:01:57.653Z,101931.00
2018-10-16T06:02:06.443Z,101940.49
2018-10-16T06:03:06.631Z,101940.66
2018-10-16T06:04:07.160Z,101940.23
2018-10-16T06:05:08.767Z,101940.06
2018-10-16T06:06:09.392Z,101940.06
2018-10-16T06:07:10.014Z,101939.90
2018-10-16T06:08:10.264Z,101939.64
2018-10-16T06:09:10.918Z,101939.22
2018-10-16T06:10:11.224Z,101939.05
2018-10-16T06:11:11.757Z,101939.08
2018-10-16T06:12:12.334Z,101939.33
2018-10-16T06:13:11.636Z,101939.35
2018-10-16T06:14:12.680Z,101939.52
2018-10-16T06:15:12.944Z,101939.78
2018-10-16T06:16:13.456Z,101940.17
2018-10-16T06:17:13.716Z,101940.93
2018-10-16T06:18:13.974Z,101942.03
2018-10-16T06:19:14.226Z,101942.76
2018-10-16T06:20:14.813Z,101944.03
2018-10-16T06:21:15.391Z,101945.55
2018-10-16T06:22:15.702Z,101946.88
2018-10-16T06:23:15.955Z,101948.23
2018-10-16T06:24:16.316Z,101949.55
2018-10-16T06:25:15.508Z,101951.58
2018-10-16T06:26:16.804Z,101952.81
2018-10-16T06:27:17.424Z,101953.91
2018-10-16T06:28:17.893Z,101955.41
2018-10-16T06:29:18.170Z,101957.02
2018-10-16T06:30:18.623Z,101958.53
2018-10-16T06:31:18.112Z,101960.30
2018-10-16T06:32:20.309Z,101961.81
2018-10-16T06:33:19.739Z,101962.92
2018-10-16T06:34:19.138Z,101964.41
2018-10-16T06:35:20.409Z,101965.31
2018-10-16T06:36:21.207Z,101966.25
2018-10-16T06:37:21.543Z,101967.88
2018-10-16T06:38:22.823Z,101969.22
2018-10-16T06:39:22.393Z,101970.55
2018-10-16T06:40:23.068Z,101971.70
2018-10-16T06:41:24.055Z,101973.55
2018-10-16T06:42:23.289Z,101974.77
2018-10-16T06:43:24.721Z,101975.50
2018-10-16T06:44:25.158Z,101976.58
2018-10-16T06:45:25.442Z,101977.24
2018-10-16T06:46:25.254Z,101978.04
2018-10-16T06:47:25.723Z,101978.95
2018-10-16T06:48:26.083Z,101980.00
2018-10-16T06:49:26.161Z,101980.63
2018-10-16T06:50:27.940Z,101981.46
2018-10-16T06:51:28.223Z,101982.09
2018-10-16T06:52:27.528Z,101982.55
2018-10-16T06:53:27.847Z,101983.80
2018-10-16T06:54:28.220Z,101984.28
2018-10-16T06:55:29.224Z,101984.77
2018-10-16T06:56:29.548Z,101984.92
2018-10-16T06:57:29.874Z,101984.95
2018-10-16T06:57:37.953Z,101987.09
2018-10-16T06:58:39.189Z,101987.01
2018-10-16T06:59:39.645Z,101987.52
2018-10-16T07:00:39.907Z,101987.60
2018-10-16T07:01:40.175Z,101987.58
2018-10-16T07:02:40.568Z,101987.63
2018-10-16T07:03:40.864Z,101987.53
2018-10-16T07:04:41.350Z,101987.62
2018-10-16T07:05:41.957Z,101987.59
2018-10-16T07:06:42.276Z,101988.11
2018-10-16T07:07:41.591Z,101988.75
2018-10-16T07:08:42.893Z,101989.44
2018-10-16T07:09:44.136Z,101989.75
2018-10-16T07:10:43.951Z,101990.23
2018-10-16T07:11:44.291Z,101990.65
2018-10-16T07:12:44.579Z,101990.57
2018-10-16T07:13:45.058Z,101990.99
2018-10-16T07:14:45.450Z,101991.55
2018-10-16T07:15:45.747Z,101992.07
2018-10-16T07:16:46.731Z,101991.98
2018-10-16T07:17:47.169Z,101992.04
2018-10-16T07:18:47.622Z,101992.22
2018-10-16T07:19:48.097Z,101992.70
2018-10-16T07:20:48.723Z,101992.95
2018-10-16T07:21:49.243Z,101992.92
2018-10-16T07:22:49.553Z,101992.84
2018-10-16T07:23:49.920Z,101993.24
2018-10-16T07:24:49.245Z,101993.50
2018-10-16T07:25:50.743Z,101994.30
2018-10-16T07:26:51.163Z,101995.03
2018-10-16T07:27:51.471Z,101995.69
2018-10-16T07:28:51.836Z,101996.34
2018-10-16T07:29:52.227Z,101997.41
2018-10-16T07:30:52.528Z,101997.92
2018-10-16T07:31:52.875Z,101998.66
2018-10-16T07:32:53.178Z,101998.58
2018-10-16T07:33:53.595Z,101999.31
2018-10-16T07:34:53.957Z,101998.95
2018-10-16T07:35:54.165Z,101999.44
2018-10-16T07:36:54.583Z,101999.50
2018-10-16T07:37:55.090Z,101999.76
2018-10-16T07:38:54.526Z,102000.08
2018-10-16T07:39:54.811Z,102000.95
2018-10-16T07:40:56.073Z,102001.09
2018-10-16T07:41:56.402Z,102001.16
2018-10-16T07:42:56.735Z,102001.62
2018-10-16T07:43:57.045Z,102002.03
2018-10-16T07:44:07.142Z,102010.39
2018-10-16T07:45:08.502Z,102010.14
2018-10-16T07:46:08.802Z,102010.90
2018-10-16T07:47:09.135Z,102010.90
2018-10-16T07:48:09.532Z,102011.07
2018-10-16T07:49:09.881Z,102011.55
2018-10-16T07:50:09.114Z,102011.80
2018-10-16T07:51:10.379Z,102012.63
2018-10-16T07:52:11.031Z,102012.97
2018-10-16T07:53:11.706Z,102013.87
2018-10-16T07:54:11.046Z,102014.61
2018-10-16T07:55:12.307Z,102015.12
2018-10-16T07:56:12.669Z,102015.34
2018-10-16T07:57:13.054Z,102016.00
2018-10-16T07:58:12.334Z,102016.65
2018-10-16T07:59:13.751Z,102017.69
2018-10-16T08:00:14.329Z,102018.12
2018-10-16T08:01:15.321Z,102018.33
2018-10-16T08:02:15.605Z,102018.13
2018-10-16T08:03:16.090Z,102018.37
2018-10-16T08:04:16.338Z,102018.91
2018-10-16T08:05:16.552Z,102018.71
2018-10-16T08:06:16.837Z,102018.95
2018-10-16T08:07:17.226Z,102019.18
2018-10-16T08:08:18.233Z,102019.38
2018-10-16T08:09:18.491Z,102019.61
2018-10-16T08:10:18.920Z,102019.50
2018-10-16T08:11:19.211Z,102019.81
2018-10-16T08:12:18.438Z,102019.70
2018-10-16T08:13:19.900Z,102019.69
2018-10-16T08:14:20.524Z,102019.70
2018-10-16T08:15:21.458Z,102019.40
2018-10-16T08:16:21.986Z,102018.84
2018-10-16T08:17:22.397Z,102018.31
2018-10-16T08:18:21.747Z,102018.02
2018-10-16T08:19:23.083Z,102017.80
2018-10-16T08:20:23.503Z,102017.48
2018-10-16T08:21:22.752Z,102017.53
2018-10-16T08:22:24.023Z,102017.14
2018-10-16T08:23:24.573Z,102017.23
2018-10-16T08:24:24.848Z,102017.11
2018-10-16T08:25:25.153Z,102016.63
2018-10-16T08:26:25.380Z,102015.74
2018-10-16T08:27:25.707Z,102015.24
2018-10-16T08:28:26.377Z,102014.69
2018-10-16T08:29:27.077Z,102014.89
2018-10-16T08:30:27.517Z,102014.73
2018-10-16T08:31:26.755Z,102014.59
2018-10-16T08:32:28.256Z,102014.21
2018-10-16T08:33:28.660Z,102014.22
2018-10-16T08:33:37.383Z,102016.28
2018-10-16T08:34:37.731Z,102015.85
2018-10-16T08:35:38.209Z,102015.94
2018-10-16T08:36:38.526Z,102015.31
2018-10-16T08:37:37.824Z,102015.31
2018-10-16T08:38:39.124Z,102015.38
2018-10-16T08:39:39.589Z,102015.38
2018-10-16T08:40:39.875Z,102015.44
2018-10-16T08:41:40.215Z,102015.41
2018-10-16T08:42:39.554Z,102015.72
2018-10-16T08:43:40.822Z,102015.52
2018-10-16T08:44:41.844Z,102015.38
2018-10-16T08:45:42.100Z,102015.70
2018-10-16T08:46:42.401Z,102015.98
2018-10-16T08:47:42.736Z,102015.75
2018-10-16T08:48:43.005Z,102016.04
2018-10-16T08:49:43.331Z,102016.16
2018-10-16T08:50:44.269Z,102016.05
2018-10-16T08:51:44.556Z,102016.11
2018-10-16T08:52:44.839Z,102016.14
2018-10-16T08:53:45.049Z,102015.69
2018-10-16T08:54:46.419Z,102014.95
2018-10-16T08:55:45.629Z,102014.16
2018-10-16T08:56:46.030Z,102013.84
2018-10-16T08:57:46.306Z,102013.13
2018-10-16T08:58:46.699Z,102012.91
2018-10-16T08:59:47.297Z,102012.74
2018-10-16T09:00:47.682Z,102012.30
2018-10-16T09:01:48.283Z,102011.99
2018-10-16T09:02:47.618Z,102011.12
2018-10-16T09:03:48.164Z,102010.58
2018-10-16T09:04:49.430Z,102009.56
2018-10-16T09:05:49.904Z,102008.61
2018-10-16T09:06:50.310Z,102007.62
2018-10-16T09:07:49.790Z,102007.00
2018-10-16T09:08:51.167Z,102006.29
2018-10-16T09:09:51.455Z,102006.33
2018-10-16T09:10:51.827Z,102005.20
2018-10-16T09:11:52.485Z,102004.19
2018-10-16T09:12:52.762Z,102003.81
2018-10-16T09:13:53.025Z,102003.30
2018-10-16T09:14:52.396Z,102002.64
2018-10-16T09:15:53.929Z,102002.05
2018-10-16T09:16:54.560Z,102001.67
2018-10-16T09:17:54.842Z,102001.12
2018-10-16T09:18:56.100Z,102000.63
2018-10-16T09:19:55.475Z,102000.38
2018-10-16T09:20:56.027Z,101999.56
2018-10-16T09:21:56.613Z,101999.05
2018-10-16T09:22:11.667Z,101988.89
2018-10-16T09:23:13.111Z,101988.30
2018-10-16T09:24:13.525Z,101987.81
2018-10-16T09:25:13.852Z,101987.13
2018-10-16T09:26:13.147Z,101987.25
2018-10-16T09:27:14.334Z,101987.43
2018-10-16T09:28:14.697Z,101987.41
2018-10-16T09:29:14.989Z,101987.48
2018-10-16T09:30:15.286Z,101987.53
2018-10-16T09:31:15.558Z,101987.42
2018-10-16T09:32:15.903Z,101987.46
2018-10-16T09:33:16.251Z,101986.73
2018-10-16T09:34:16.513Z,101986.73
2018-10-16T09:35:16.915Z,101986.78
2018-10-16T09:36:17.274Z,101986.31
2018-10-16T09:37:17.880Z,101986.55
2018-10-16T09:38:18.167Z,101986.59
2018-10-16T09:39:18.399Z,101985.61
2018-10-16T09:40:18.707Z,101984.95
2018-10-16T09:41:19.170Z,101984.43
2018-10-16T09:42:19.553Z,101984.22
2018-10-16T09:43:19.963Z,101984.02
2018-10-16T09:44:20.212Z,101983.93
2018-10-16T09:45:21.573Z,101983.58
2018-10-16T09:46:20.929Z,101983.00
2018-10-16T09:47:21.325Z,101982.89
2018-10-16T09:48:21.547Z,101983.38
2018-10-16T09:49:21.918Z,101983.10
2018-10-16T09:50:21.310Z,101982.63
2018-10-16T09:51:22.767Z,101982.26
2018-10-16T09:52:22.966Z,101981.32
2018-10-16T09:53:23.262Z,101981.63
2018-10-16T09:54:23.628Z,101981.45
2018-10-16T09:55:23.877Z,101981.45
2018-10-16T09:56:24.137Z,101981.69
2018-10-16T09:57:24.379Z,101981.31
2018-10-16T09:58:24.933Z,101981.27
2018-10-16T09:59:25.437Z,101981.28
2018-10-16T10:00:25.747Z,101981.38
2018-10-16T10:01:25.995Z,101981.90
2018-10-16T10:02:26.279Z,101981.92
2018-10-16T10:03:26.627Z,101981.47
2018-10-16T10:04:26.856Z,101981.58
2018-10-16T10:05:27.071Z,101981.55
2018-10-16T10:06:27.255Z,101981.28
2018-10-16T10:07:27.582Z,101981.08
2018-10-16T10:08:28.017Z,101980.97
2018-10-16T10:08:36.614Z,101976.67
2018-10-16T10:09:38.061Z,101976.26
2018-10-16T10:10:38.656Z,101976.34
2018-10-16T10:11:38.880Z,101976.22
2018-10-16T10:12:39.209Z,101975.84
2018-10-16T10:13:39.444Z,101976.63
2018-10-16T10:14:39.756Z,101976.25
2018-10-16T10:15:39.148Z,101975.97
2018-10-16T10:16:39.561Z,101975.51
2018-10-16T10:17:40.985Z,101975.76
2018-10-16T10:18:41.213Z,101975.11
2018-10-16T10:19:41.492Z,101974.77
2018-10-16T10:20:41.685Z,101974.37
2018-10-16T10:21:42.096Z,101973.77
2018-10-16T10:22:42.407Z,101973.16
2018-10-16T10:23:42.747Z,101972.51
2018-10-16T10:24:43.155Z,101971.77
2018-10-16T10:25:43.728Z,101970.61
2018-10-16T10:26:44.273Z,101969.95
2018-10-16T10:27:44.546Z,101969.81
2018-10-16T10:28:44.798Z,101969.45
2018-10-16T10:29:45.403Z,101969.23
2018-10-16T10:30:44.623Z,101968.22
2018-10-16T10:31:46.580Z,101968.10
2018-10-16T10:32:46.937Z,101967.80
2018-10-16T10:33:47.238Z,101967.44
2018-10-16T10:34:47.471Z,101966.75
2018-10-16T10:35:47.728Z,101965.75
2018-10-16T10:36:48.096Z,101965.07
2018-10-16T10:37:48.335Z,101964.11
2018-10-16T10:38:48.816Z,101963.26
2018-10-16T10:39:49.150Z,101962.48
2018-10-16T10:40:49.556Z,101962.48
2018-10-16T10:41:49.967Z,101961.48
2018-10-16T10:42:50.225Z,101961.02
2018-10-16T10:43:50.595Z,101960.73
2018-10-16T10:44:50.866Z,101959.95
2018-10-16T10:45:51.144Z,101960.03
2018-10-16T10:46:51.504Z,101959.53
2018-10-16T10:47:51.789Z,101958.87
2018-10-16T10:48:52.034Z,101958.09
2018-10-16T10:49:52.387Z,101957.44
2018-10-16T10:50:51.848Z,101957.24
2018-10-16T10:51:51.843Z,101956.55
2018-10-16T10:52:53.151Z,101956.56
2018-10-16T10:53:53.613Z,101956.41
2018-10-16T10:54:53.829Z,101955.77
2018-10-16T10:55:54.313Z,101954.96
2018-10-16T10:56:54.752Z,101954.34
2018-10-16T10:57:53.892Z,101953.88
2018-10-16T10:58:02.467Z,101943.80
2018-10-16T10:59:02.987Z,101940.77
2018-10-16T11:00:03.274Z,101940.68
2018-10-16T11:01:03.902Z,101940.65
2018-10-16T11:02:04.376Z,101940.90
2018-10-16T11:03:07.733Z,101941.11
2018-10-16T11:04:03.908Z,101940.88
2018-10-16T11:05:05.251Z,101940.67
2018-10-16T11:06:05.735Z,101940.82
2018-10-16T11:07:06.763Z,101940.27
2018-10-16T11:08:05.856Z,101940.41
2018-10-16T11:09:07.682Z,101940.25
2018-10-16T11:10:07.055Z,101939.96
2018-10-16T11:11:08.432Z,101940.17
2018-10-16T11:12:08.759Z,101939.57
2018-10-16T11:13:09.418Z,101938.78
2018-10-16T11:14:09.652Z,101938.70
2018-10-16T11:15:10.135Z,101937.42
2018-10-16T11:16:09.528Z,101937.07
2018-10-16T11:17:10.852Z,101936.50